Time;durP1;ratioP1;P1;durP2;ratioP2;P2;SDS_P1;SDS_P2;PMS_P1;PMS_P2;Temp;Humidity;BMP_temperature;BMP_pressure;BME280_temperature;BME280_humidity;BME280_pressure;Samples;Min_cycle;Max_cycle;Signal;HPM_P1;HPM_P2
2022/09/08 00:01:30;;;;;;;13.57;8.57;;;;;;;21.93;63.75;99392.63;4485414;31;33905;-80
2022/09/08 00:03:58;;;;;;;15.00;10.20;;;;;;;22.00;63.40;99388.66;4490049;31;33752;-80
2022/09/08 00:06:27;;;;;;;12.85;8.63;;;;;;;21.86;63.81;99383.41;4489787;31;33446;-81
2022/09/08 00:08:58;;;;;;;12.52;8.63;;;;;;;21.94;63.60;99389.06;4485476;31;34537;-82
2022/09/08 00:11:28;;;;;;;;;;;;;;;21.82;63.89;99385.41;4481986;31;33839;-81
2022/09/08 00:13:58;;;;;;;11.73;8.55;;;;;;;21.80;64.18;99382.03;4476820;32;34049;-78
2022/09/08 00:16:27;;;;;;;14.15;9.68;;;;;;;21.84;63.98;99374.72;4477983;31;33183;-80
2022/09/08 00:18:56;;;;;;;14.27;8.80;;;;;;;21.82;63.83;99373.97;4493472;31;33467;-81
2022/09/08 00:21:27;;;;;;;12.63;8.02;;;;;;;21.87;63.79;99372.75;4498228;31;34578;-80
2022/09/08 00:23:57;;;;;;;11.25;7.80;;;;;;;21.83;64.02;99365.12;4492552;31;33674;-79
2022/09/08 00:26:26;;;;;;;12.55;9.43;;;;;;;21.65;64.53;99367.16;4490373;31;33423;-80
2022/09/08 00:28:55;;;;;;;14.05;9.75;;;;;;;21.66;64.24;99360.94;4477585;32;33201;-79
2022/09/08 00:31:24;;;;;;;13.18;8.38;;;;;;;21.67;64.33;99363.50;4480647;32;33070;-82
2022/09/08 00:33:52;;;;;;;12.55;8.73;;;;;;;21.82;63.61;99359.00;4475679;32;33291;-79
2022/09/08 00:36:21;;;;;;;11.27;8.40;;;;;;;21.78;63.66;99348.75;4476151;32;34133;-79
2022/09/08 00:38:51;;;;;;;13.13;9.02;;;;;;;21.72;63.94;99348.19;4477796;31;35432;-81
2022/09/08 00:41:23;;;;;;;11.48;7.82;;;;;;;21.67;64.10;99349.41;4490311;31;33443;-82
2022/09/08 00:43:58;;;;;;;10.50;7.40;;;;;;;21.78;63.73;99351.38;4481335;31;34519;-81
2022/09/08 00:46:30;;;;;;;12.00;7.82;;;;;;;21.64;64.08;99347.00;4484571;31;34144;-79
2022/09/08 00:49:04;;;;;;;11.38;7.93;;;;;;;21.59;64.28;99339.34;4479629;31;33420;-79
2022/09/08 00:51:33;;;;;;;10.70;7.85;;;;;;;21.78;63.73;99349.59;4478565;31;34362;-79
2022/09/08 00:54:02;;;;;;;11.55;7.75;;;;;;;21.62;64.19;99351.50;4482122;31;33721;-82
2022/09/08 00:56:33;;;;;;;11.07;8.02;;;;;;;21.56;64.22;99338.72;4476634;32;34461;-81
2022/09/08 00:59:03;;;;;;;11.30;7.65;;;;;;;21.59;64.05;99344.63;4475611;31;34158;-82
2022/09/08 01:01:32;;;;;;;11.77;7.40;;;;;;;21.54;64.12;99340.59;4486953;31;33489;-81
2022/09/08 01:04:03;;;;;;;11.57;7.83;;;;;;;21.71;63.41;99341.22;4479861;31;33746;-82
2022/09/08 01:15:15;;;;;;;11.32;7.12;;;;;;;21.64;63.52;99339.91;4480016;31;34671;-78
2022/09/08 01:17:44;;;;;;;11.75;7.40;;;;;;;21.57;63.72;99343.03;4490534;31;34269;-79
2022/09/08 01:20:13;;;;;;;11.98;8.15;;;;;;;21.63;63.62;99337.37;4486447;31;33363;-80
2022/09/08 01:23:05;;;;;;;11.00;7.03;;;;;;;21.67;63.46;99338.84;4483069;31;34786;-79
2022/09/08 01:25:53;;;;;;;11.60;7.22;;;;;;;21.65;63.01;99335.47;4490865;31;33990;-82
2022/09/08 01:28:27;;;;;;;10.38;7.65;;;;;;;21.67;63.00;99345.00;4482002;31;33997;-81
2022/09/08 01:30:55;;;;;;;9.93;7.53;;;;;;;21.58;63.33;99339.47;4477768;31;33367;-80
2022/09/08 01:33:24;;;;;;;11.23;7.57;;;;;;;21.71;62.86;99330.66;4475033;31;33877;-82
2022/09/08 01:35:53;;;;;;;10.93;7.25;;;;;;;21.69;62.75;99335.16;4480760;31;34567;-83
2022/09/08 01:38:22;;;;;;;10.13;7.47;;;;;;;21.69;62.88;99327.25;4478512;31;34942;-81
2022/09/08 01:40:51;;;;;;;10.60;7.15;;;;;;;21.68;62.73;99324.72;4480584;31;33517;-80
2022/09/08 01:43:19;;;;;;;10.70;6.93;;;;;;;21.81;62.18;99322.13;4490800;31;34317;-81
2022/09/08 01:45:49;;;;;;;11.95;7.43;;;;;;;21.66;62.51;99335.38;4480117;31;34313;-80
2022/09/08 01:48:18;;;;;;;10.38;7.62;;;;;;;21.67;62.68;99331.81;4491634;31;33241;-80
2022/09/08 01:50:47;;;;;;;11.18;7.65;;;;;;;21.65;62.66;99336.34;4478015;31;32996;-78
2022/09/08 01:53:15;;;;;;;10.77;7.20;;;;;;;21.42;63.49;99335.16;4476384;31;33567;-80
2022/09/08 01:55:44;;;;;;;11.02;6.75;;;;;;;21.72;62.44;99331.47;4479976;31;33659;-81
2022/09/08 01:58:13;;;;;;;9.90;6.32;;;;;;;21.62;62.59;99333.03;4481419;31;31688;-79
2022/09/08 02:00:42;;;;;;;11.70;7.00;;;;;;;21.57;62.59;99332.47;4479563;31;33941;-80
2022/09/08 02:03:13;;;;;;;10.57;6.97;;;;;;;21.49;62.67;99330.34;4484809;31;33767;-81
2022/09/08 02:05:42;;;;;;;9.60;6.40;;;;;;;21.56;62.40;99330.81;4479684;31;34883;-78
2022/09/08 02:08:12;;;;;;;9.95;6.65;;;;;;;21.58;62.32;99329.75;4490068;31;34111;-82
2022/09/08 02:10:40;;;;;;;9.65;6.15;;;;;;;21.56;62.52;99329.00;4489516;31;34048;-82
2022/09/08 02:13:09;;;;;;;10.35;7.05;;;;;;;21.57;62.60;99325.41;4482289;31;34203;-80
2022/09/08 02:15:40;;;;;;;;;;;;;;;21.78;61.97;99328.47;4485345;31;33594;-78
2022/09/08 02:18:09;;;;;;;12.10;7.72;;;;;;;21.65;62.18;99330.19;4486011;31;34683;-80
2022/09/08 02:20:39;;;;;;;9.55;6.28;;;;;;;21.65;62.33;99327.53;4481494;31;33860;-81
2022/09/08 02:23:07;;;;;;;9.97;6.57;;;;;;;21.61;62.54;99326.91;4477264;31;33456;-81
2022/09/08 02:25:36;;;;;;;11.05;7.37;;;;;;;21.54;62.64;99337.97;4485605;31;33825;-81
2022/09/08 02:28:05;;;;;;;11.20;7.35;;;;;;;21.59;62.42;99330.59;4484414;31;34259;-78
2022/09/08 02:30:33;;;;;;;10.25;6.47;;;;;;;21.55;62.30;99327.28;4488281;31;32538;-80
2022/09/08 02:33:02;;;;;;;9.07;5.68;;;;;;;21.56;62.26;99326.38;4479409;31;34562;-82
2022/09/08 02:35:30;;;;;;;10.75;6.90;;;;;;;21.56;62.20;99326.38;4478164;31;34167;-80
2022/09/08 02:38:01;;;;;;;11.57;7.50;;;;;;;21.50;62.41;99332.91;4476351;31;33893;-81
2022/09/08 02:40:29;;;;;;;9.73;7.32;;;;;;;21.64;61.88;99336.44;4479849;31;32206;-81
2022/09/08 02:42:59;;;;;;;10.60;7.62;;;;;;;21.61;62.02;99337.47;4484467;31;33541;-79
2022/09/08 02:45:28;;;;;;;10.85;6.82;;;;;;;21.63;61.69;99332.94;4479363;31;33949;-81
2022/09/08 02:47:58;;;;;;;9.82;6.80;;;;;;;21.54;61.96;99322.97;4480096;31;33334;-80
2022/09/08 02:50:27;;;;;;;10.38;6.55;;;;;;;21.50;62.10;99329.38;4485743;31;33374;-81
2022/09/08 02:52:56;;;;;;;9.85;7.10;;;;;;;21.45;62.24;99326.19;4488717;31;33978;-79
2022/09/08 02:55:26;;;;;;;9.25;6.20;;;;;;;21.56;61.88;99325.53;4488830;31;33476;-80
2022/09/08 02:57:55;;;;;;;9.40;6.87;;;;;;;21.56;61.91;99320.25;4489635;31;33383;-80
2022/09/08 03:00:30;;;;;;;9.68;6.43;;;;;;;21.51;61.95;99323.19;4482969;31;32917;-81
2022/09/08 03:02:59;;;;;;;11.00;6.47;;;;;;;21.61;61.51;99326.91;4483457;31;33509;-79
2022/09/08 03:05:28;;;;;;;10.02;6.50;;;;;;;21.42;62.11;99326.41;4486554;31;34637;-79
2022/09/08 03:07:57;;;;;;;10.10;6.68;;;;;;;21.38;62.17;99315.16;4482479;31;33052;-83
2022/09/08 03:10:27;;;;;;;10.52;6.68;;;;;;;21.38;62.01;99316.94;4481516;31;33342;-81
2022/09/08 03:12:57;;;;;;;8.35;5.35;;;;;;;21.54;61.43;99312.41;4476968;31;31564;-81
2022/09/08 03:15:27;;;;;;;11.50;6.62;;;;;;;21.46;61.48;99314.72;4484704;31;34743;-80
2022/09/08 03:17:56;;;;;;;11.93;7.15;;;;;;;21.41;61.55;99319.44;4481115;31;33675;-79
2022/09/08 03:20:26;;;;;;;10.57;6.68;;;;;;;21.46;61.49;99315.56;4476228;31;33393;-80
2022/09/08 03:22:55;;;;;;;10.75;6.87;;;;;;;21.38;61.78;99307.22;4477904;31;33783;-78
2022/09/08 03:25:24;;;;;;;10.90;7.68;;;;;;;21.29;62.16;99311.31;4493592;31;34099;-80
2022/09/08 03:27:54;;;;;;;11.05;7.60;;;;;;;21.28;62.28;99306.13;4486785;31;33616;-79
2022/09/08 03:30:25;;;;;;;9.30;6.50;;;;;;;21.29;62.19;99306.03;4477405;32;33024;-81
2022/09/08 03:32:54;;;;;;;9.30;6.28;;;;;;;21.43;61.68;99301.69;4476860;32;33684;-82
2022/09/08 03:35:22;;;;;;;11.32;7.55;;;;;;;21.34;61.95;99299.63;4477521;32;33327;-82
2022/09/08 03:37:54;;;;;;;10.93;7.22;;;;;;;21.39;61.75;99306.34;4488975;31;34468;-82
2022/09/08 03:40:23;;;;;;;9.55;6.07;;;;;;;21.38;61.48;99307.22;4482636;31;32642;-79
2022/09/08 03:42:53;;;;;;;9.15;6.37;;;;;;;21.31;61.88;99309.44;4492151;31;33658;-79
2022/09/08 03:45:22;;;;;;;10.75;7.25;;;;;;;21.30;61.91;99320.06;4478369;31;33923;-79
2022/09/08 03:47:51;;;;;;;9.93;6.62;;;;;;;21.24;62.09;99325.75;4487054;31;33196;-80
2022/09/08 03:50:20;;;;;;;9.82;6.47;;;;;;;21.19;62.16;99323.41;4481245;31;33011;-80
2022/09/08 03:52:49;;;;;;;10.35;7.05;;;;;;;21.16;62.28;99325.38;4486330;31;34054;-80
2022/09/08 03:55:18;;;;;;;10.23;7.05;;;;;;;21.23;61.89;99330.16;4480236;31;34471;-79
2022/09/08 03:57:47;;;;;;;10.65;6.95;;;;;;;21.16;62.16;99328.84;4480677;31;33912;-82
2022/09/08 04:00:17;;;;;;;10.45;6.85;;;;;;;21.04;62.77;99332.25;4493075;31;33708;-80
2022/09/08 04:02:46;;;;;;;9.50;6.30;;;;;;;21.10;62.43;99335.38;4479269;31;33463;-79
2022/09/08 04:05:14;;;;;;;9.50;6.32;;;;;;;21.07;62.36;99329.44;4486511;31;34696;-82
2022/09/08 04:07:43;;;;;;;8.75;5.53;;;;;;;21.16;62.00;99328.00;4478522;31;33775;-80
2022/09/08 04:10:13;;;;;;;10.57;7.32;;;;;;;20.95;62.85;99332.81;4489531;31;33603;-82
2022/09/08 04:12:46;;;;;;;8.85;5.80;;;;;;;20.94;62.89;99345.16;4479528;31;34577;-82
2022/09/08 04:15:17;;;;;;;10.23;6.45;;;;;;;21.06;62.46;99347.03;4478110;31;31714;-79
2022/09/08 04:17:45;;;;;;;8.95;5.65;;;;;;;20.94;62.79;99346.97;4481781;31;33134;-78
2022/09/08 04:20:16;;;;;;;13.20;6.10;;;;;;;20.94;62.78;99350.44;4476465;31;33077;-80
2022/09/08 04:22:45;;;;;;;10.80;6.62;;;;;;;21.14;62.16;99343.91;4481087;32;32836;-80
2022/09/08 04:25:13;;;;;;;14.87;6.60;;;;;;;21.01;62.49;99340.38;4476146;32;33647;-82
2022/09/08 04:27:43;;;;;;;10.00;6.37;;;;;;;21.07;62.11;99329.44;4476136;31;33623;-79
2022/09/08 04:30:14;;;;;;;9.63;6.05;;;;;;;21.09;62.02;99327.53;4473866;31;31594;-82
2022/09/08 04:32:44;;;;;;;12.57;6.53;;;;;;;21.19;61.43;99317.25;4481449;32;34026;-80
2022/09/08 04:35:13;;;;;;;10.05;6.07;;;;;;;21.08;62.01;99323.22;4476365;32;33573;-80
2022/09/08 04:37:41;;;;;;;8.63;6.30;;;;;;;20.95;62.48;99319.62;4476436;31;33203;-80
2022/09/08 04:40:11;;;;;;;9.95;5.93;;;;;;;21.19;61.44;99331.31;4474431;31;33697;-81
2022/09/08 04:42:40;;;;;;;10.27;6.68;;;;;;;21.29;61.22;99335.06;4483794;31;33549;-80
2022/09/08 04:45:09;;;;;;;9.68;5.87;;;;;;;21.28;61.34;99340.44;4483870;31;33569;-79
2022/09/08 04:47:38;;;;;;;8.13;5.65;;;;;;;21.29;61.55;99329.78;4477502;31;33955;-80
2022/09/08 04:50:09;;;;;;;11.70;7.97;;;;;;;21.33;61.59;99334.88;4475745;31;32834;-80
2022/09/08 04:52:38;;;;;;;10.93;6.80;;;;;;;21.25;61.97;99333.56;4483094;31;33332;-84
2022/09/08 04:55:07;;;;;;;9.70;5.95;;;;;;;21.26;61.78;99335.28;4491608;31;33653;-82
2022/09/08 04:57:36;;;;;;;9.88;6.80;;;;;;;21.44;60.95;99335.91;4473408;31;31996;-81
2022/09/08 05:00:07;;;;;;;10.70;7.30;;;;;;;21.29;61.73;99334.22;4477315;31;34021;-80
2022/09/08 05:02:35;;;;;;;10.75;7.53;;;;;;;21.30;61.54;99336.75;4478005;31;33638;-83
2022/09/08 05:05:05;;;;;;;10.13;7.28;;;;;;;21.26;61.53;99335.28;4481085;31;33455;-80
2022/09/08 05:07:35;;;;;;;12.97;7.60;;;;;;;21.44;61.23;99345.63;4486350;31;33005;-80
2022/09/08 05:10:06;;;;;;;9.52;6.28;;;;;;;21.80;60.18;99346.84;4483837;31;33415;-80
2022/09/08 05:12:35;;;;;;;10.75;7.40;;;;;;;21.57;61.05;99343.03;4479690;31;32889;-79
2022/09/08 05:15:05;;;;;;;10.80;7.68;;;;;;;21.68;60.71;99351.97;4485114;31;33955;-82
2022/09/08 05:17:33;;;;;;;9.23;6.70;;;;;;;21.59;61.14;99349.91;4496091;31;33936;-81
2022/09/08 05:20:03;;;;;;;11.18;7.35;;;;;;;21.47;61.65;99348.91;4485013;31;32964;-79
2022/09/08 05:22:31;;;;;;;10.18;7.32;;;;;;;21.69;60.94;99348.38;4492849;31;33658;-81
2022/09/08 05:25:02;;;;;;;11.15;7.03;;;;;;;21.82;60.58;99344.94;4479386;31;33529;-81
2022/09/08 05:27:30;;;;;;;12.52;8.05;;;;;;;21.90;60.33;99350.59;4483756;31;34228;-81
2022/09/08 05:29:59;;;;;;;10.85;6.87;;;;;;;21.85;60.42;99350.88;4490883;31;33909;-79
2022/09/08 05:32:28;;;;;;;10.60;7.05;;;;;;;21.65;61.28;99341.62;4483627;31;33515;-80
2022/09/08 05:34:57;;;;;;;11.10;7.18;;;;;;;21.72;61.23;99339.41;4479893;31;33520;-80
2022/09/08 05:37:27;;;;;;;10.20;6.85;;;;;;;21.67;61.24;99338.84;4485049;31;35316;-81
2022/09/08 05:39:56;;;;;;;10.65;7.12;;;;;;;21.95;60.21;99345.84;4492254;31;33408;-79
2022/09/08 05:42:26;;;;;;;10.48;7.47;;;;;;;21.67;61.03;99345.00;4479905;31;33651;-79
2022/09/08 05:44:55;;;;;;;10.75;7.57;;;;;;;21.89;60.65;99349.75;4480590;31;33991;-79
2022/09/08 05:47:24;;;;;;;15.05;8.48;;;;;;;21.74;60.72;99342.78;4487748;31;34112;-81
2022/09/08 05:49:56;;;;;;;10.63;8.13;;;;;;;21.81;60.50;99345.91;4483024;32;33192;-79
2022/09/08 05:52:24;;;;;;;12.18;6.90;;;;;;;22.06;59.65;99340.72;4478580;32;33422;-80
2022/09/08 05:54:54;;;;;;;10.43;7.25;;;;;;;22.04;60.11;99347.88;4477798;32;34402;-79
2022/09/08 05:57:23;;;;;;;10.30;6.45;;;;;;;22.02;59.81;99344.50;4476543;32;33200;-79
2022/09/08 05:59:53;;;;;;;10.13;6.80;;;;;;;21.99;59.26;99339.41;4475873;32;33307;-79
2022/09/08 06:02:22;;;;;;;8.65;5.65;;;;;;;22.03;58.05;99340.88;4482680;32;34247;-80
2022/09/08 06:04:51;;;;;;;11.63;6.10;;;;;;;22.11;58.47;99335.97;4477813;32;33797;-81
2022/09/08 06:07:20;;;;;;;10.45;6.37;;;;;;;22.08;57.98;99340.59;4476903;31;34045;-78
2022/09/08 06:09:49;;;;;;;9.02;5.80;;;;;;;22.17;57.67;99335.53;4480821;31;33028;-78
2022/09/08 06:12:17;;;;;;;9.93;6.05;;;;;;;21.98;58.48;99329.78;4497998;31;34245;-81
2022/09/08 06:14:46;;;;;;;9.82;6.05;;;;;;;22.15;57.32;99332.16;4492463;31;33498;-78
2022/09/08 06:17:16;;;;;;;13.00;6.00;;;;;;;22.11;57.42;99328.03;4492752;31;33994;-80
2022/09/08 06:19:46;;;;;;;12.85;6.82;;;;;;;22.40;56.79;99332.31;4492909;31;33867;-80
2022/09/08 06:22:14;;;;;;;9.50;5.97;;;;;;;22.21;57.44;99332.75;4495415;31;33461;-80
2022/09/08 06:24:43;;;;;;;9.65;6.50;;;;;;;22.49;56.32;99331.69;4499096;31;33650;-78
2022/09/08 06:27:15;;;;;;;13.85;7.90;;;;;;;22.34;56.84;99328.31;4493606;31;33236;-81
2022/09/08 06:29:54;;;;;;;10.20;6.32;;;;;;;22.30;56.75;99325.03;4493674;31;33138;-80
2022/09/08 06:32:31;;;;;;;11.77;5.50;;;;;;;22.17;56.81;99322.31;4493552;31;33922;-81
2022/09/08 06:35:04;;;;;;;9.75;6.35;;;;;;;22.44;56.83;99313.50;4499221;31;33624;-79
2022/09/08 06:37:40;;;;;;;8.68;5.22;;;;;;;22.40;56.61;99317.34;4498125;31;33389;-81
2022/09/08 06:40:16;;;;;;;9.52;6.05;;;;;;;22.64;55.88;99316.59;4493147;31;34183;-80
2022/09/08 06:42:51;;;;;;;10.15;6.60;;;;;;;22.40;56.30;99308.53;4493213;31;34524;-80
2022/09/08 06:45:26;;;;;;;11.55;5.93;;;;;;;22.35;56.92;99306.22;4493272;31;34042;-80
2022/09/08 06:48:15;;;;;;;8.85;5.20;;;;;;;22.73;55.93;99310.66;4499024;31;34523;-79
2022/09/08 06:50:53;;;;;;;8.95;5.37;;;;;;;22.80;56.17;99304.84;4499003;31;34125;-81
2022/09/08 06:53:25;;;;;;;9.13;5.75;;;;;;;22.78;56.15;99304.12;4493122;31;34378;-81
2022/09/08 06:56:01;;;;;;;8.30;5.12;;;;;;;22.86;55.15;99300.06;4493182;31;33955;-78
2022/09/08 06:58:52;;;;;;;9.63;5.90;;;;;;;23.10;55.20;99295.75;4493554;31;33930;-80
2022/09/08 07:01:23;;;;;;;9.13;5.85;;;;;;;22.83;55.53;99287.91;4493428;31;33289;-78
2022/09/08 07:04:05;;;;;;;10.32;4.87;;;;;;;22.80;55.89;99282.84;4498840;31;34616;-81
2022/09/08 07:06:36;;;;;;;8.50;5.07;;;;;;;23.09;55.28;99285.25;4499002;31;33734;-80
2022/09/08 07:09:13;;;;;;;8.13;5.03;;;;;;;23.24;55.18;99289.44;4484815;31;34287;-77
2022/09/08 07:11:59;;;;;;;7.85;5.32;;;;;;;23.20;55.37;99290.63;4477239;32;33376;-79
2022/09/08 07:14:50;;;;;;;8.43;5.47;;;;;;;23.28;55.40;99285.63;4477734;32;34554;-81
2022/09/08 07:17:21;;;;;;;10.48;6.18;;;;;;;23.35;55.06;99281.56;4471083;31;33717;-78
2022/09/08 07:19:54;;;;;;;9.07;5.50;;;;;;;23.54;54.44;99288.19;4481655;32;33461;-78
2022/09/08 07:22:31;;;;;;;8.57;4.90;;;;;;;23.46;54.21;99277.28;4480267;31;33336;-79
2022/09/08 07:25:10;;;;;;;7.95;4.50;;;;;;;23.59;53.63;99281.59;4493429;31;34111;-81
2022/09/08 07:27:39;;;;;;;8.75;5.18;;;;;;;23.58;54.53;99284.34;4493129;31;33815;-81
2022/09/08 07:30:16;;;;;;;8.90;4.97;;;;;;;23.59;54.47;99286.03;4492993;31;34606;-80
2022/09/08 07:32:48;;;;;;;8.95;4.80;;;;;;;23.63;54.04;99292.78;4498757;31;33162;-79
2022/09/08 07:35:46;;;;;;;10.05;5.37;;;;;;;23.70;53.98;99288.72;4498689;31;33231;-79
2022/09/08 07:38:18;;;;;;;8.95;4.62;;;;;;;23.79;53.90;99289.88;4493118;31;33992;-80
2022/09/08 07:40:52;;;;;;;6.62;3.90;;;;;;;23.77;53.83;99290.00;4492537;31;33756;-78
2022/09/08 07:43:26;;;;;;;9.50;5.10;;;;;;;23.87;53.53;99295.44;4491849;31;33309;-78
2022/09/08 07:46:10;;;;;;;9.27;5.25;;;;;;;24.02;53.08;99296.12;4474828;32;34398;-79
2022/09/08 07:48:45;;;;;;;7.78;4.75;;;;;;;23.97;53.83;99300.91;4485924;31;34165;-80
2022/09/08 07:51:19;;;;;;;8.13;4.72;;;;;;;24.12;53.30;99305.06;4491467;31;33542;-78
2022/09/08 07:54:05;;;;;;;8.93;4.93;;;;;;;24.19;53.28;99303.66;4492661;31;34242;-81
2022/09/08 07:56:40;;;;;;;8.32;4.65;;;;;;;24.45;52.20;99304.31;4490064;31;34716;-79
2022/09/08 07:59:34;;;;;;;10.63;5.20;;;;;;;24.38;52.84;99310.19;4487545;31;34326;-79
2022/09/08 08:02:20;;;;;;;9.32;5.62;;;;;;;24.25;52.68;99313.75;4477492;31;34406;-80
2022/09/08 08:05:00;;;;;;;7.95;4.60;;;;;;;24.46;52.23;99321.09;4487683;31;33245;-81
2022/09/08 08:07:34;;;;;;;8.63;4.90;;;;;;;24.56;52.42;99321.22;4489042;31;34443;-80
2022/09/08 08:10:06;;;;;;;10.38;4.60;;;;;;;24.55;52.03;99325.69;4490912;31;32833;-79
2022/09/08 08:12:40;;;;;;;8.98;5.12;;;;;;;24.78;52.57;99317.75;4475450;32;33790;-80
2022/09/08 08:15:14;;;;;;;10.32;5.30;;;;;;;24.74;52.07;99321.59;4479214;31;33367;-78
2022/09/08 08:17:48;;;;;;;7.82;4.95;;;;;;;24.86;52.34;99320.63;4491230;31;33491;-79
2022/09/08 08:20:33;;;;;;;8.20;4.53;;;;;;;24.97;52.16;99319.81;4478842;31;34919;-79
2022/09/08 08:23:30;;;;;;;8.00;4.57;;;;;;;25.06;51.51;99322.56;4483488;31;34693;-81
2022/09/08 08:26:07;;;;;;;8.40;4.97;;;;;;;25.28;51.90;99323.56;4475589;31;32959;-81
2022/09/08 08:28:40;;;;;;;7.85;4.10;;;;;;;25.44;50.94;99321.38;4481317;31;33394;-78
2022/09/08 08:31:22;;;;;;;8.23;4.82;;;;;;;25.36;51.57;99322.94;4481485;31;33643;-81
2022/09/08 08:33:56;;;;;;;7.65;4.70;;;;;;;25.50;51.35;99336.78;4487129;31;34645;-79
2022/09/08 08:36:30;;;;;;;7.20;4.15;;;;;;;25.68;51.32;99334.44;4484445;31;33985;-78
2022/09/08 08:39:08;;;;;;;7.47;4.62;;;;;;;25.73;50.80;99342.03;4477197;31;34139;-80
2022/09/08 08:42:09;;;;;;;6.72;4.25;;;;;;;25.99;50.93;99337.25;4485813;31;34647;-79
2022/09/08 08:44:48;;;;;;;7.45;4.30;;;;;;;25.95;50.64;99333.16;4483841;31;33990;-79
2022/09/08 08:48:05;;;;;;;9.02;4.40;;;;;;;26.09;50.53;99335.53;4487480;31;34558;-78
2022/09/08 08:51:10;;;;;;;7.10;3.92;;;;;;;25.99;50.32;99333.78;4487624;31;33510;-79
2022/09/08 08:54:01;;;;;;;8.48;4.00;;;;;;;26.21;50.18;99331.00;4489492;31;34666;-80
2022/09/08 08:56:34;;;;;;;;;;;;;;;26.25;49.80;99318.31;4483128;31;33422;-78
2022/09/08 08:59:43;;;;;;;8.30;4.05;;;;;;;26.39;49.97;99326.81;4488759;31;33798;-79
2022/09/08 09:02:28;;;;;;;7.90;4.68;;;;;;;26.56;50.21;99305.94;4492738;31;33501;-80
2022/09/08 09:05:15;;;;;;;6.18;3.92;;;;;;;26.64;50.27;99313.25;4482421;31;34804;-81
2022/09/08 09:08:22;;;;;;;7.30;4.32;;;;;;;26.84;49.21;99314.19;4476293;31;34610;-81
2022/09/08 09:11:15;;;;;;;6.68;4.07;;;;;;;26.74;49.15;99298.16;4482974;31;33189;-81
2022/09/08 09:14:08;;;;;;;6.90;4.03;;;;;;;26.84;49.52;99288.41;4480892;31;34507;-80
2022/09/08 09:16:57;;;;;;;7.30;3.75;;;;;;;26.90;48.54;99279.06;4486745;31;34460;-82
2022/09/08 09:20:11;;;;;;;6.25;3.92;;;;;;;27.17;48.69;99281.09;4482814;31;33536;-81
2022/09/08 09:22:48;;;;;;;8.63;4.20;;;;;;;27.08;47.74;99281.91;4482253;31;32928;-79
2022/09/08 09:25:24;;;;;;;7.68;3.90;;;;;;;27.11;48.83;99279.84;4489553;31;34200;-80
2022/09/08 09:28:07;;;;;;;5.85;3.65;;;;;;;27.16;47.95;99279.41;4477362;31;35121;-78
2022/09/08 09:30:45;;;;;;;10.70;3.90;;;;;;;27.20;48.40;99281.69;4486178;31;34165;-78
2022/09/08 09:33:54;;;;;;;6.90;4.20;;;;;;;27.34;47.66;99274.28;4481909;31;33814;-79
2022/09/08 09:36:31;;;;;;;5.62;2.90;;;;;;;27.61;47.83;99268.28;4481304;31;33166;-80
2022/09/08 09:39:12;;;;;;;6.20;3.67;;;;;;;27.43;47.64;99266.31;4487136;31;33555;-80
2022/09/08 09:42:04;;;;;;;5.70;2.95;;;;;;;27.34;47.63;99255.66;4491058;31;33326;-78
2022/09/08 09:44:47;;;;;;;4.30;2.60;;;;;;;27.59;48.23;99257.78;4495689;31;32736;-80
2022/09/08 09:47:32;;;;;;;5.15;2.60;;;;;;;27.88;48.47;99256.94;4497170;31;34481;-79
2022/09/08 09:50:32;;;;;;;5.07;2.72;;;;;;;27.96;48.48;99261.59;4491096;31;33644;-79
2022/09/08 09:53:09;;;;;;;5.23;2.70;;;;;;;28.11;46.79;99251.34;4490445;31;33130;-79
2022/09/08 09:56:41;;;;;;;5.85;2.87;;;;;;;28.22;47.08;99248.47;4491198;31;32981;-80
2022/09/08 09:59:34;;;;;;;6.70;3.22;;;;;;;28.19;47.22;99256.78;4488258;31;33466;-79
2022/09/08 10:02:21;;;;;;;7.70;3.28;;;;;;;28.50;46.67;99250.25;4489253;31;34778;-79
2022/09/08 10:05:10;;;;;;;5.90;2.87;;;;;;;28.30;46.53;99251.28;4490333;31;34742;-78
2022/09/08 10:08:12;;;;;;;5.37;3.15;;;;;;;28.16;46.09;99254.41;4475858;32;35105;-78
2022/09/08 10:11:05;;;;;;;6.53;3.22;;;;;;;28.45;47.19;99247.19;4489897;31;33463;-81
2022/09/08 10:14:08;;;;;;;5.80;3.25;;;;;;;28.57;47.63;99255.03;4497615;31;33794;-79
2022/09/08 10:16:53;;;;;;;5.03;2.55;;;;;;;28.72;47.38;99248.22;4483540;32;34452;-79
2022/09/08 10:19:48;;;;;;;5.12;2.95;;;;;;;28.76;45.99;99240.75;4497108;31;33390;-81
2022/09/08 10:22:47;;;;;;;5.87;3.12;;;;;;;28.78;45.59;99233.44;4493334;31;34353;-78
2022/09/08 10:25:56;;;;;;;4.80;2.72;;;;;;;28.75;45.77;99234.56;4489575;31;33645;-80
2022/09/08 10:28:53;;;;;;;4.37;2.30;;;;;;;28.94;46.44;99223.78;4443925;32;34197;-79
2022/09/08 10:31:46;;;;;;;6.05;2.75;;;;;;;29.21;46.48;99222.09;4433267;32;33222;-79
2022/09/08 10:34:40;;;;;;;9.05;2.90;;;;;;;29.09;45.89;99217.97;4431027;32;33870;-78
2022/09/08 10:37:25;;;;;;;5.25;2.80;;;;;;;28.97;45.00;99213.78;4443819;32;33711;-80
2022/09/08 10:40:15;;;;;;;4.80;2.40;;;;;;;29.13;46.16;99224.69;4443369;32;32784;-81
2022/09/08 10:42:46;;;;;;;3.97;2.17;;;;;;;29.18;45.30;99225.09;4443840;32;32777;-80
2022/09/08 10:45:21;;;;;;;5.32;3.15;;;;;;;29.13;44.65;99233.53;4449460;32;33926;-80
2022/09/08 10:48:32;;;;;;;3.87;1.87;;;;;;;29.50;45.81;99237.94;4444243;32;33225;-79
2022/09/08 10:51:14;;;;;;;4.45;2.10;;;;;;;29.36;44.92;99230.47;4428425;32;34161;-79
2022/09/08 10:53:56;;;;;;;4.70;2.35;;;;;;;29.58;43.77;99214.97;4428682;32;33013;-80
2022/09/08 10:56:28;;;;;;;4.57;2.33;;;;;;;29.62;44.13;99225.16;4428411;32;33764;-78
2022/09/08 10:59:30;;;;;;;2.92;1.60;;;;;;;29.60;44.59;99221.84;4428334;32;35077;-79
2022/09/08 11:02:30;;;;;;;4.72;1.98;;;;;;;29.77;43.90;99218.31;4428318;32;33475;-80
2022/09/08 11:05:16;;;;;;;4.12;2.08;;;;;;;29.68;42.97;99219.25;4475016;32;34264;-79
2022/09/08 11:08:13;;;;;;;2.60;1.27;;;;;;;29.90;43.95;99211.72;4483043;32;33048;-80
2022/09/08 11:11:10;;;;;;;2.78;1.30;;;;;;;29.91;43.65;99205.38;4477674;32;34437;-79
2022/09/08 11:13:49;;;;;;;3.37;1.60;;;;;;;30.05;42.12;99207.47;4477752;32;33529;-78
2022/09/08 11:16:59;;;;;;;3.15;1.20;;;;;;;30.09;42.78;99216.87;4477463;31;32877;-77
2022/09/08 11:19:39;;;;;;;3.53;1.42;;;;;;;30.22;40.22;99218.28;4477216;32;34384;-80
2022/09/08 11:22:15;;;;;;;4.10;1.58;;;;;;;30.50;40.50;99219.84;4478900;31;33756;-80
2022/09/08 11:24:55;;;;;;;2.65;1.30;;;;;;;30.55;39.23;99216.69;4492141;31;34431;-81
2022/09/08 11:27:33;;;;;;;5.45;1.45;;;;;;;30.70;38.43;99214.22;4498620;31;33439;-77
2022/09/08 11:30:14;;;;;;;2.60;1.17;;;;;;;30.79;39.67;99213.28;4493526;31;34656;-81
2022/09/08 11:32:51;;;;;;;2.08;1.25;;;;;;;30.81;38.75;99213.94;4493435;31;33787;-79
2022/09/08 11:35:33;;;;;;;1.30;0.88;;;;;;;31.03;39.78;99221.41;4492992;31;33676;-79
2022/09/08 11:38:30;;;;;;;3.47;1.15;;;;;;;31.07;38.81;99213.88;4492847;31;34626;-79
2022/09/08 11:41:20;;;;;;;3.62;1.33;;;;;;;31.02;38.43;99217.03;4468317;32;33021;-78
2022/09/08 11:44:00;;;;;;;2.92;1.02;;;;;;;31.18;38.54;99208.22;4492069;31;34391;-80
2022/09/08 11:46:42;;;;;;;3.15;0.95;;;;;;;31.17;37.25;99203.88;4498484;31;33467;-79
2022/09/08 11:49:23;;;;;;;5.87;1.80;;;;;;;31.22;37.26;99208.72;4478299;31;475732;-79
2022/09/08 11:52:40;;;;;;;2.65;1.20;;;;;;;31.28;38.34;99213.41;4493206;31;33453;-79
2022/09/08 11:55:24;;;;;;;2.53;1.08;;;;;;;31.59;37.64;99202.09;4491552;31;33448;-77
2022/09/08 11:58:06;;;;;;;4.82;1.60;;;;;;;31.67;37.98;99202.91;4482795;31;34574;-79
2022/09/08 12:00:52;;;;;;;2.08;1.10;;;;;;;31.79;37.39;99211.47;4477048;32;33209;-79
2022/09/08 12:03:56;;;;;;;1.65;0.93;;;;;;;31.81;37.28;99217.50;4491564;31;33580;-79
2022/09/08 12:06:56;;;;;;;4.35;0.82;;;;;;;31.72;36.65;99210.47;4488978;31;33591;-77
2022/09/08 12:09:49;;;;;;;2.75;1.15;;;;;;;31.44;36.46;99199.25;4490683;31;33677;-80
2022/09/08 12:12:29;;;;;;;3.47;1.85;;;;;;;31.40;36.61;99200.56;4485129;31;33682;-79
2022/09/08 12:15:12;;;;;;;4.25;1.05;;;;;;;31.44;37.52;99194.72;4480708;31;33421;-80
2022/09/08 12:17:54;;;;;;;3.60;1.37;;;;;;;31.25;37.98;99195.00;4476225;32;33671;-77
2022/09/08 12:20:36;;;;;;;2.45;0.90;;;;;;;31.47;38.30;99177.47;4490707;31;33883;-77
2022/09/08 12:23:17;;;;;;;3.15;1.40;;;;;;;31.48;37.34;99187.16;4491862;31;33349;-80
2022/09/08 12:26:00;;;;;;;1.65;0.90;;;;;;;31.47;37.81;99185.50;4491785;31;33563;-77